Time;durP1;ratioP1;P1;durP2;ratioP2;P2;SDS_P1;SDS_P2;PMS_P1;PMS_P2;Temp;Humidity;BMP_temperature;BMP_pressure;BME280_temperature;BME280_humidity;BME280_pressure;Samples;Min_cycle;Max_cycle;Signal;HPM_P1;HPM_P2
2022/03/20 00:00:13;;;;;;;11.13;8.27;;;5.10;99.90;;;;;;5095656;28;20040;-70
2022/03/20 00:02:40;;;;;;;11.50;8.88;;;5.00;99.90;;;;;;5077932;28;20094;-70
2022/03/20 00:05:06;;;;;;;10.90;8.32;;;5.00;99.90;;;;;;5104665;28;20040;-70
2022/03/20 00:07:33;;;;;;;11.75;8.90;;;5.00;99.90;;;;;;5080108;28;20044;-70
2022/03/20 00:10:04;;;;;;;13.03;8.40;;;5.00;99.90;;;;;;5099201;28;20043;-72
2022/03/20 00:12:30;;;;;;;10.95;8.32;;;4.90;99.90;;;;;;5075725;28;20405;-70
2022/03/20 00:14:56;;;;;;;13.75;8.98;;;4.90;99.90;;;;;;5091985;28;20052;-70
2022/03/20 00:17:22;;;;;;;9.97;7.90;;;4.80;99.90;;;;;;5080858;28;20582;-70
2022/03/20 00:19:48;;;;;;;12.27;8.52;;;4.90;99.90;;;;;;5079909;28;20078;-70
2022/03/20 00:22:15;;;;;;;10.77;8.45;;;4.90;99.90;;;;;;5079995;28;20101;-70
2022/03/20 00:24:43;;;;;;;11.32;8.43;;;4.80;99.90;;;;;;5074992;28;20055;-70
2022/03/20 00:27:11;;;;;;;11.52;8.95;;;4.90;99.90;;;;;;5077278;28;20048;-69
2022/03/20 00:29:37;;;;;;;11.23;8.32;;;4.80;99.90;;;;;;5071336;28;20275;-69
2022/03/20 00:32:08;;;;;;;12.00;8.63;;;4.90;99.90;;;;;;5095136;28;20039;-69
2022/03/20 00:34:35;;;;;;;10.10;7.73;;;4.90;99.90;;;;;;5075763;28;20052;-69
2022/03/20 00:37:01;;;;;;;10.00;8.87;;;4.90;99.90;;;;;;5071252;28;20596;-70
2022/03/20 00:39:27;;;;;;;11.87;9.10;;;4.90;99.90;;;;;;5089110;28;20074;-70
2022/03/20 00:41:53;;;;;;;13.03;8.87;;;4.90;99.90;;;;;;5070104;28;20131;-70
2022/03/20 00:44:19;;;;;;;12.50;9.30;;;4.90;99.90;;;;;;5069774;28;20046;-71
2022/03/20 00:46:44;;;;;;;9.93;8.43;;;4.90;99.90;;;;;;5069566;28;20119;-70
2022/03/20 00:49:10;;;;;;;14.23;9.48;;;4.80;99.90;;;;;;5086605;28;20043;-75
2022/03/20 00:51:36;;;;;;;14.03;9.70;;;4.80;99.90;;;;;;5085430;28;20711;-75
2022/03/20 00:54:02;;;;;;;15.30;9.77;;;4.80;99.90;;;;;;5070123;28;20036;-75
2022/03/20 00:56:28;;;;;;;12.57;9.10;;;4.80;99.90;;;;;;5087449;28;20080;-75
2022/03/20 00:58:54;;;;;;;14.88;9.05;;;4.80;99.90;;;;;;5070580;28;20096;-76
2022/03/20 01:01:19;;;;;;;11.73;8.63;;;4.70;99.90;;;;;;5088678;28;20032;-70
2022/03/20 01:03:45;;;;;;;12.70;10.05;;;4.70;99.90;;;;;;5070599;28;20048;-70
2022/03/20 01:06:11;;;;;;;13.00;9.63;;;4.70;99.90;;;;;;5087859;28;20055;-69
2022/03/20 01:08:38;;;;;;;12.20;10.03;;;4.70;99.90;;;;;;5083886;28;20051;-70
2022/03/20 01:11:08;;;;;;;14.27;10.03;;;4.60;99.90;;;;;;5088437;28;20093;-70
2022/03/20 01:13:35;;;;;;;12.82;10.07;;;4.60;99.90;;;;;;5067942;28;20056;-70
2022/03/20 01:16:01;;;;;;;13.70;10.13;;;4.60;99.90;;;;;;5068190;28;20036;-70
2022/03/20 01:18:26;;;;;;;14.67;10.43;;;4.50;99.90;;;;;;5062895;28;20043;-71
2022/03/20 01:20:53;;;;;;;13.17;10.40;;;4.40;99.90;;;;;;5080333;28;20036;-70
2022/03/20 01:23:22;;;;;;;13.43;9.80;;;4.40;99.90;;;;;;5079655;28;20566;-70
2022/03/20 01:25:49;;;;;;;14.07;10.03;;;4.30;99.90;;;;;;5063661;28;20074;-70
2022/03/20 01:28:16;;;;;;;16.33;9.30;;;4.40;99.90;;;;;;5062195;28;20055;-70
2022/03/20 01:30:43;;;;;;;13.07;9.73;;;4.40;99.90;;;;;;5046025;28;20048;-69
2022/03/20 01:33:09;;;;;;;13.53;10.30;;;4.40;99.90;;;;;;5079558;28;20044;-70
2022/03/20 01:35:35;;;;;;;12.23;9.97;;;4.40;99.90;;;;;;5062886;28;20501;-70
2022/03/20 01:38:05;;;;;;;14.87;10.67;;;4.30;99.90;;;;;;5060617;28;20047;-69
2022/03/20 01:40:31;;;;;;;13.85;10.40;;;4.30;99.90;;;;;;5064872;28;20059;-70
2022/03/20 01:42:58;;;;;;;14.00;10.53;;;4.30;99.90;;;;;;5081091;28;20032;-70
2022/03/20 01:45:24;;;;;;;13.90;11.17;;;4.30;99.90;;;;;;5063500;28;20134;-70
2022/03/20 01:47:52;;;;;;;14.07;10.20;;;4.30;99.90;;;;;;5080899;28;20048;-70
2022/03/20 01:50:21;;;;;;;16.17;10.83;;;4.30;99.90;;;;;;5063465;28;20116;-70
2022/03/20 01:52:48;;;;;;;16.20;11.07;;;4.20;99.90;;;;;;5066129;28;20032;-69
2022/03/20 01:55:18;;;;;;;13.20;10.30;;;4.20;99.90;;;;;;5067542;28;20044;-70
2022/03/20 01:57:44;;;;;;;14.73;11.60;;;4.20;99.90;;;;;;5067294;28;20143;-70
2022/03/20 02:00:13;;;;;;;13.73;10.63;;;4.20;99.90;;;;;;5067745;28;20139;-68
2022/03/20 02:02:39;;;;;;;13.80;10.77;;;4.10;99.90;;;;;;5084425;28;20525;-69
2022/03/20 02:05:09;;;;;;;12.17;10.60;;;4.20;99.90;;;;;;5083927;28;20036;-70
2022/03/20 02:07:37;;;;;;;16.45;11.10;;;4.10;99.90;;;;;;5066735;28;20051;-70
2022/03/20 02:10:04;;;;;;;14.07;11.37;;;4.10;99.90;;;;;;5065879;28;20047;-70
2022/03/20 02:12:31;;;;;;;14.63;11.20;;;4.20;99.90;;;;;;5067728;28;20113;-70
2022/03/20 02:14:58;;;;;;;14.77;11.40;;;4.10;99.90;;;;;;5063702;28;20044;-70
2022/03/20 02:17:31;;;;;;;15.67;11.30;;;4.20;99.90;;;;;;5047774;28;20044;-69
2022/03/20 02:20:04;;;;;;;14.70;11.50;;;4.20;99.90;;;;;;5028581;28;20041;-70
2022/03/20 02:22:32;;;;;;;14.67;11.93;;;4.20;99.90;;;;;;5052663;28;20127;-70
2022/03/20 02:25:05;;;;;;;14.97;11.77;;;4.10;99.90;;;;;;5034034;28;20054;-70
2022/03/20 02:27:32;;;;;;;17.83;12.60;;;4.00;99.90;;;;;;5061275;28;20048;-71
2022/03/20 02:30:06;;;;;;;16.00;11.80;;;4.00;99.90;;;;;;5054573;28;20037;-76
2022/03/20 02:32:32;;;;;;;16.00;11.90;;;4.10;99.90;;;;;;5064848;28;20048;-75
2022/03/20 02:35:01;;;;;;;14.50;11.40;;;4.10;99.90;;;;;;5048055;28;20061;-77
2022/03/20 02:37:28;;;;;;;15.00;12.47;;;4.10;99.90;;;;;;5049562;28;20086;-76
2022/03/20 02:39:57;;;;;;;16.90;12.40;;;4.00;99.90;;;;;;5062607;28;20040;-74
2022/03/20 02:42:24;;;;;;;14.93;12.30;;;4.00;99.90;;;;;;5068904;28;20048;-76
2022/03/20 02:45:00;;;;;;;16.30;11.73;;;4.00;99.90;;;;;;5070701;28;20119;-71
2022/03/20 02:47:29;;;;;;;16.10;12.37;;;4.00;99.90;;;;;;5063159;28;20446;-69
2022/03/20 02:50:07;;;;;;;15.23;12.27;;;4.00;99.90;;;;;;5068781;28;20051;-69
2022/03/20 02:52:59;;;;;;;18.03;13.40;;;3.90;99.90;;;;;;5058554;28;20512;-70
2022/03/20 02:55:30;;;;;;;16.70;13.17;;;3.90;99.90;;;;;;5064452;28;20441;-70
2022/03/20 02:57:59;;;;;;;17.93;12.97;;;3.90;99.90;;;;;;5047047;28;20414;-70
2022/03/20 03:00:28;;;;;;;18.53;13.43;;;3.90;99.90;;;;;;5056768;28;20079;-69
2022/03/20 03:02:57;;;;;;;16.70;13.13;;;3.90;99.90;;;;;;5061012;28;20545;-69
2022/03/20 03:05:25;;;;;;;17.13;13.70;;;3.90;99.90;;;;;;5061206;28;20516;-69
2022/03/20 03:13:30;;;;;;;18.63;14.50;;;3.70;99.90;;;;;;5072831;28;20056;-70
2022/03/20 03:16:01;;;;;;;15.80;13.53;;;3.70;99.90;;;;;;5076883;28;20435;-70
2022/03/20 03:18:27;;;;;;;17.80;14.23;;;3.60;99.90;;;;;;5061146;28;20452;-69
2022/03/20 03:20:53;;;;;;;17.73;15.20;;;3.60;99.90;;;;;;5062011;28;20051;-68
2022/03/20 03:23:26;;;;;;;16.10;14.40;;;3.50;99.90;;;;;;5062089;28;20494;-70
2022/03/20 03:25:53;;;;;;;17.47;15.60;;;3.50;99.90;;;;;;5060362;28;20188;-69
2022/03/20 03:28:19;;;;;;;18.27;14.77;;;3.40;99.90;;;;;;5078777;28;20306;-70
2022/03/20 03:30:47;;;;;;;20.40;15.73;;;3.40;99.90;;;;;;5077181;28;20060;-70
2022/03/20 03:33:17;;;;;;;18.47;14.53;;;3.40;99.90;;;;;;5061880;28;20074;-69
2022/03/20 03:35:43;;;;;;;16.33;14.17;;;3.40;99.90;;;;;;5075992;28;20044;-68
2022/03/20 03:38:15;;;;;;;17.20;15.40;;;3.30;99.90;;;;;;5056932;28;20043;-69
2022/03/20 03:40:44;;;;;;;18.20;14.50;;;3.30;99.90;;;;;;5076793;28;20044;-70
2022/03/20 03:43:11;;;;;;;18.57;14.53;;;3.30;99.90;;;;;;5062956;28;20039;-76
2022/03/20 03:45:40;;;;;;;18.90;15.40;;;3.20;99.90;;;;;;5057993;28;20195;-75
2022/03/20 03:48:07;;;;;;;20.73;16.13;;;3.20;99.90;;;;;;5078959;28;20051;-75
2022/03/20 03:50:34;;;;;;;20.23;15.93;;;3.20;99.90;;;;;;5078713;28;20127;-74
2022/03/20 03:52:59;;;;;;;19.00;16.63;;;3.20;99.90;;;;;;5078528;28;20628;-73
2022/03/20 03:55:25;;;;;;;20.10;16.77;;;3.20;99.90;;;;;;5081880;28;20051;-75
2022/03/20 03:57:52;;;;;;;20.43;16.50;;;3.20;99.90;;;;;;5065217;28;20036;-68
2022/03/20 04:00:20;;;;;;;19.03;17.00;;;3.20;99.90;;;;;;5082144;28;20042;-68
2022/03/20 04:02:46;;;;;;;21.77;17.10;;;3.20;99.90;;;;;;5081842;28;20626;-69
2022/03/20 04:05:15;;;;;;;20.13;16.37;;;3.20;99.90;;;;;;5065183;28;20047;-69
2022/03/20 04:07:41;;;;;;;21.87;17.30;;;3.30;99.90;;;;;;5063223;28;20063;-69
2022/03/20 04:10:08;;;;;;;20.00;16.77;;;3.30;99.90;;;;;;5080332;28;20065;-68
2022/03/20 04:12:37;;;;;;;19.80;17.17;;;3.30;99.90;;;;;;5048397;28;20046;-69
2022/03/20 04:15:04;;;;;;;22.03;17.90;;;3.30;99.90;;;;;;5067522;28;20057;-70
2022/03/20 04:17:30;;;;;;;20.23;17.57;;;3.20;99.90;;;;;;5068399;28;20044;-69
2022/03/20 04:19:59;;;;;;;20.70;17.90;;;3.20;99.90;;;;;;5084417;28;20036;-69
2022/03/20 04:22:27;;;;;;;23.70;17.90;;;3.20;99.90;;;;;;5085985;28;20532;-69
2022/03/20 04:24:53;;;;;;;20.10;17.20;;;3.20;99.90;;;;;;5085463;28;20075;-69
2022/03/20 04:27:20;;;;;;;22.80;18.40;;;3.20;99.90;;;;;;5085057;28;20134;-69
2022/03/20 04:29:46;;;;;;;20.63;17.93;;;3.20;99.90;;;;;;5085463;28;20180;-69
2022/03/20 04:32:13;;;;;;;20.83;18.27;;;3.30;99.90;;;;;;5069024;28;20042;-69
2022/03/20 04:34:40;;;;;;;22.00;18.40;;;3.30;99.90;;;;;;5067991;28;20758;-69
2022/03/20 04:37:07;;;;;;;21.97;17.93;;;3.20;99.90;;;;;;5066389;28;20039;-68
2022/03/20 04:39:37;;;;;;;21.30;18.13;;;3.20;99.90;;;;;;5068765;28;20413;-68
2022/03/20 04:42:04;;;;;;;23.55;19.33;;;3.30;99.90;;;;;;5065506;28;20446;-70
2022/03/20 04:44:31;;;;;;;22.97;18.90;;;3.20;99.90;;;;;;5068375;28;20426;-69
2022/03/20 04:46:56;;;;;;;21.67;18.83;;;3.20;99.90;;;;;;5067343;28;20129;-68
2022/03/20 05:00:21;;;;;;;22.87;20.40;;;3.20;99.90;;;;;;5069614;28;20785;-69
2022/03/20 05:02:48;;;;;;;22.93;20.33;;;3.10;99.90;;;;;;5085645;28;20044;-69
2022/03/20 05:05:15;;;;;;;25.60;21.00;;;3.10;99.90;;;;;;5086736;28;20039;-68
2022/03/20 05:07:41;;;;;;;24.30;20.20;;;3.10;99.90;;;;;;5084623;28;20521;-69
2022/03/20 05:15:36;;;;;;;24.00;21.50;;;3.00;99.90;;;;;;5080462;28;20108;-69
2022/03/20 05:18:04;;;;;;;23.50;21.00;;;2.90;99.90;;;;;;5065458;28;20109;-68
2022/03/20 05:20:29;;;;;;;24.37;21.23;;;3.00;99.90;;;;;;5067862;28;20514;-69
2022/03/20 05:22:55;;;;;;;22.70;20.40;;;2.90;99.90;;;;;;5069589;28;20048;-69
2022/03/20 05:25:21;;;;;;;22.73;20.33;;;2.90;99.90;;;;;;5093247;28;20680;-70
2022/03/20 05:27:47;;;;;;;24.47;21.87;;;2.90;99.90;;;;;;5088988;28;20055;-70
2022/03/20 05:30:13;;;;;;;25.23;21.83;;;3.00;99.90;;;;;;5090037;28;20181;-69
2022/03/20 05:32:40;;;;;;;23.53;21.03;;;3.00;99.90;;;;;;5089949;28;20082;-69
2022/03/20 05:35:08;;;;;;;25.43;22.13;;;2.90;99.90;;;;;;5088796;28;20636;-69
2022/03/20 05:37:35;;;;;;;26.00;23.30;;;3.00;99.90;;;;;;5088589;28;20533;-70
2022/03/20 05:40:02;;;;;;;23.93;21.27;;;2.80;99.90;;;;;;5105563;28;20096;-70
2022/03/20 05:42:28;;;;;;;25.33;22.63;;;2.90;99.90;;;;;;5089680;28;20044;-69
2022/03/20 05:44:54;;;;;;;25.50;21.90;;;2.90;99.90;;;;;;5089548;28;20116;-70
2022/03/20 05:47:20;;;;;;;24.90;21.30;;;2.90;99.90;;;;;;5072360;28;20047;-70
2022/03/20 05:49:46;;;;;;;24.87;22.17;;;2.80;99.90;;;;;;5055848;28;20908;-68
2022/03/20 05:52:15;;;;;;;23.83;21.27;;;2.90;99.90;;;;;;5089281;28;20060;-70
2022/03/20 05:54:41;;;;;;;25.50;22.80;;;2.80;99.90;;;;;;5072850;28;20054;-69
2022/03/20 05:59:53;;;;;;;25.70;22.47;;;2.90;99.90;;;;;;5089471;28;20059;-68
2022/03/20 06:02:20;;;;;;;25.83;23.07;;;3.00;99.90;;;;;;5071813;28;20580;-67
2022/03/20 06:04:46;;;;;;;25.23;22.53;;;3.00;99.90;;;;;;5072567;28;20079;-68
2022/03/20 06:07:12;;;;;;;25.17;22.53;;;3.10;99.90;;;;;;5088209;28;20070;-72
2022/03/20 06:09:38;;;;;;;27.80;23.03;;;3.10;99.90;;;;;;5089017;28;20051;-71
2022/03/20 06:12:06;;;;;;;25.07;22.37;;;3.20;99.90;;;;;;5071423;28;20556;-74
2022/03/20 06:14:35;;;;;;;25.33;22.37;;;3.10;99.90;;;;;;5055818;28;20047;-74
2022/03/20 06:17:04;;;;;;;26.27;23.07;;;3.00;99.90;;;;;;5085850;28;20085;-75
2022/03/20 06:19:30;;;;;;;26.13;23.17;;;3.00;99.90;;;;;;5071211;28;20040;-74
2022/03/20 06:21:56;;;;;;;25.23;22.63;;;3.00;99.90;;;;;;5088615;28;20043;-77
2022/03/20 06:24:22;;;;;;;26.67;23.27;;;3.10;99.90;;;;;;5106018;27;20043;-76
2022/03/20 06:26:48;;;;;;;26.87;23.97;;;3.00;99.90;;;;;;5071417;28;20052;-68
2022/03/20 06:29:14;;;;;;;25.27;22.60;;;3.10;99.90;;;;;;5088983;28;20054;-68
2022/03/20 06:31:39;;;;;;;26.47;23.67;;;3.20;99.90;;;;;;5055440;28;20154;-70
2022/03/20 06:34:05;;;;;;;25.23;22.63;;;3.20;99.90;;;;;;5070626;28;20047;-70
2022/03/20 06:36:31;;;;;;;24.97;22.33;;;3.20;99.90;;;;;;5087831;28;20047;-71
2022/03/20 06:38:57;;;;;;;26.87;23.60;;;3.30;99.90;;;;;;5071420;28;20081;-72
2022/03/20 06:41:23;;;;;;;27.20;23.87;;;3.30;99.90;;;;;;5062484;28;20071;-69
2022/03/20 06:43:50;;;;;;;26.67;23.77;;;3.30;99.90;;;;;;5043707;28;20147;-69
2022/03/20 06:46:16;;;;;;;26.03;22.83;;;3.30;99.90;;;;;;5051422;28;20332;-68
2022/03/20 06:48:42;;;;;;;26.80;23.33;;;3.30;99.90;;;;;;5074257;28;20055;-69
2022/03/20 06:51:08;;;;;;;26.57;23.73;;;3.30;99.90;;;;;;5056118;28;20042;-68
2022/03/20 06:53:34;;;;;;;27.27;24.37;;;3.30;99.90;;;;;;5091853;28;20046;-69
2022/03/20 06:56:00;;;;;;;26.23;23.40;;;3.40;99.90;;;;;;5069675;28;20137;-68
2022/03/20 06:58:27;;;;;;;28.30;25.23;;;3.50;99.90;;;;;;5086184;28;20544;-70
2022/03/20 07:00:54;;;;;;;25.90;23.20;;;3.50;99.90;;;;;;5081776;28;20040;-68
2022/03/20 07:03:20;;;;;;;27.20;23.90;;;3.50;99.90;;;;;;5101253;28;20047;-71
2022/03/20 07:05:46;;;;;;;26.03;23.33;;;3.50;99.90;;;;;;5087521;28;20059;-70
2022/03/20 07:08:13;;;;;;;26.57;23.73;;;3.60;99.90;;;;;;5102502;28;20042;-67
2022/03/20 07:10:39;;;;;;;27.57;24.60;;;3.60;99.90;;;;;;5071350;28;20043;-68
2022/03/20 07:15:53;;;;;;;25.87;23.17;;;3.70;99.90;;;;;;5088149;28;20044;-68
2022/03/20 07:18:20;;;;;;;26.50;23.77;;;3.80;99.90;;;;;;5087033;28;20350;-67
2022/03/20 07:20:47;;;;;;;26.40;23.40;;;3.90;99.90;;;;;;5088570;28;20075;-68
2022/03/20 07:23:14;;;;;;;28.73;23.77;;;3.80;99.90;;;;;;5103605;28;20075;-68
2022/03/20 07:31:11;;;;;;;25.47;22.27;;;4.00;99.90;;;;;;5087764;28;20082;-68
2022/03/20 07:33:38;;;;;;;25.63;22.87;;;4.10;99.90;;;;;;5104496;28;20462;-69
2022/03/20 07:36:05;;;;;;;25.43;22.73;;;4.20;99.90;;;;;;5101530;28;20047;-70
2022/03/20 07:38:30;;;;;;;26.13;23.33;;;4.30;99.90;;;;;;5085798;28;20051;-68
2022/03/20 07:40:56;;;;;;;27.00;24.13;;;4.30;99.90;;;;;;5101830;28;20406;-68
2022/03/20 07:43:22;;;;;;;25.17;22.57;;;4.40;99.90;;;;;;5085808;28;20079;-69
2022/03/20 07:45:48;;;;;;;26.63;23.30;;;4.40;99.90;;;;;;5079001;28;20047;-69
2022/03/20 07:48:13;;;;;;;26.23;23.40;;;4.60;99.90;;;;;;5063247;28;20051;-68
2022/03/20 07:50:43;;;;;;;26.63;23.50;;;4.60;99.90;;;;;;5082287;28;20043;-68
2022/03/20 07:53:08;;;;;;;24.73;22.00;;;4.70;99.90;;;;;;5077577;28;20039;-68
2022/03/20 07:55:34;;;;;;;25.90;22.00;;;4.70;99.90;;;;;;5061500;28;20505;-69
2022/03/20 07:58:01;;;;;;;24.70;22.07;;;4.80;99.90;;;;;;5077552;28;20471;-68
2022/03/20 08:00:27;;;;;;;25.53;22.77;;;4.80;99.90;;;;;;5081263;28;20825;-68
2022/03/20 08:02:53;;;;;;;26.17;22.30;;;4.90;99.90;;;;;;5083739;28;20397;-69
2022/03/20 08:05:20;;;;;;;26.50;23.57;;;5.00;99.90;;;;;;5084515;28;20425;-69
2022/03/20 08:07:46;;;;;;;26.10;22.40;;;5.10;99.90;;;;;;5068039;28;20082;-73
2022/03/20 08:10:12;;;;;;;24.80;21.77;;;5.30;99.70;;;;;;5067508;28;21183;-71
2022/03/20 08:12:39;;;;;;;25.90;23.30;;;5.30;99.00;;;;;;5051665;28;20577;-72
2022/03/20 08:15:07;;;;;;;27.93;23.30;;;5.40;99.90;;;;;;5084895;28;20085;-70
2022/03/20 08:17:43;;;;;;;27.50;22.80;;;5.40;99.00;;;;;;5085306;28;20043;-73
2022/03/20 08:20:09;;;;;;;29.10;24.00;;;5.50;97.40;;;;;;5085162;28;20070;-71
2022/03/20 08:22:37;;;;;;;25.63;22.27;;;5.60;96.90;;;;;;5085359;28;20066;-71
2022/03/20 08:25:04;;;;;;;25.83;23.13;;;5.60;98.00;;;;;;5082971;28;20051;-71
2022/03/20 08:27:30;;;;;;;26.27;22.27;;;5.70;97.50;;;;;;5076559;28;20113;-71
2022/03/20 08:29:58;;;;;;;25.43;22.67;;;5.80;96.90;;;;;;5063359;28;20043;-70
2022/03/20 08:32:25;;;;;;;23.70;20.73;;;5.90;96.50;;;;;;5077730;28;20047;-69
2022/03/20 08:34:52;;;;;;;27.30;22.17;;;6.00;94.10;;;;;;5065189;28;20043;-70
2022/03/20 08:37:18;;;;;;;25.60;22.20;;;6.00;93.50;;;;;;5065785;28;20051;-71
2022/03/20 08:39:43;;;;;;;26.13;23.15;;;5.80;94.50;;;;;;5080566;28;20054;-73
2022/03/20 08:42:10;;;;;;;25.00;22.33;;;5.80;95.00;;;;;;5077575;28;20054;-71
2022/03/20 08:44:36;;;;;;;27.63;24.63;;;5.80;94.30;;;;;;5080014;28;20101;-70
2022/03/20 08:47:04;;;;;;;27.38;22.30;;;5.80;95.10;;;;;;5096904;28;20047;-69
2022/03/20 08:49:30;;;;;;;26.50;22.60;;;5.80;95.80;;;;;;5112461;28;20052;-69
2022/03/20 08:51:56;;;;;;;26.38;22.85;;;6.00;94.90;;;;;;5081117;28;20031;-70
2022/03/20 08:54:22;;;;;;;25.33;22.63;;;6.30;94.40;;;;;;5067413;28;20051;-69
2022/03/20 08:56:48;;;;;;;27.87;22.53;;;6.50;92.10;;;;;;5071655;28;20055;-70
2022/03/20 08:59:14;;;;;;;25.70;22.92;;;6.60;89.60;;;;;;5088499;28;20047;-69
2022/03/20 09:01:40;;;;;;;28.70;23.67;;;6.60;90.30;;;;;;5071031;28;20117;-68
2022/03/20 09:04:07;;;;;;;26.25;22.50;;;6.70;90.80;;;;;;5088727;28;20506;-68
2022/03/20 09:06:32;;;;;;;28.67;22.67;;;7.00;90.30;;;;;;5086076;28;20083;-69
2022/03/20 09:08:58;;;;;;;26.92;23.00;;;7.00;90.40;;;;;;5088511;28;20071;-68
2022/03/20 09:11:24;;;;;;;26.33;22.45;;;7.10;88.40;;;;;;5070541;28;20673;-68
2022/03/20 09:13:50;;;;;;;27.45;22.83;;;7.20;83.50;;;;;;5069817;28;20058;-70
2022/03/20 09:19:03;;;;;;;27.42;24.13;;;7.30;85.10;;;;;;5073004;28;20167;-69
2022/03/20 09:21:34;;;;;;;28.42;22.50;;;7.40;82.00;;;;;;5080440;28;20521;-69
2022/03/20 09:24:00;;;;;;;28.58;23.85;;;7.50;81.70;;;;;;5079470;28;20538;-68
2022/03/20 09:26:27;;;;;;;27.10;24.20;;;7.70;81.70;;;;;;5083021;28;20078;-68
2022/03/20 09:28:53;;;;;;;27.48;23.98;;;7.70;73.50;;;;;;5085129;28;20708;-69
2022/03/20 09:31:20;;;;;;;28.67;23.92;;;7.70;73.00;;;;;;5075980;28;20040;-68
2022/03/20 09:33:46;;;;;;;29.58;24.35;;;7.70;75.30;;;;;;5065886;28;20341;-71
2022/03/20 09:36:12;;;;;;;26.83;23.08;;;7.90;73.40;;;;;;5101176;28;20056;-69
2022/03/20 09:38:39;;;;;;;27.60;24.35;;;8.00;71.80;;;;;;5070965;28;20437;-68
2022/03/20 09:41:09;;;;;;;26.90;24.00;;;8.00;70.00;;;;;;5082852;28;20127;-70
2022/03/20 09:43:38;;;;;;;;;;;8.00;68.10;;;;;;5063361;28;20330;-71
2022/03/20 09:46:05;;;;;;;28.60;24.60;;;8.10;67.20;;;;;;5084060;28;19931;-67
2022/03/20 09:48:30;;;;;;;26.77;23.85;;;8.10;67.30;;;;;;5084831;28;20059;-68
2022/03/20 09:51:02;;;;;;;27.65;24.65;;;8.10;70.10;;;;;;5054914;28;20046;-67
2022/03/20 09:53:29;;;;;;;28.38;23.63;;;8.20;70.20;;;;;;5082894;28;20035;-68
2022/03/20 09:55:55;;;;;;;27.13;24.02;;;8.40;67.80;;;;;;5082526;28;20039;-67
2022/03/20 09:58:26;;;;;;;29.20;24.15;;;8.50;68.30;;;;;;5099983;28;20048;-67
2022/03/20 10:00:53;;;;;;;30.15;25.73;;;8.50;66.80;;;;;;5067695;28;20051;-69
2022/03/20 10:03:24;;;;;;;27.15;23.83;;;8.60;66.10;;;;;;5055435;28;20048;-72
2022/03/20 10:06:15;;;;;;;27.20;24.30;;;8.60;66.40;;;;;;5081675;28;20055;-69
2022/03/20 10:09:02;;;;;;;28.13;25.13;;;8.80;66.30;;;;;;5100533;28;20047;-70
2022/03/20 10:11:28;;;;;;;30.48;25.10;;;8.80;66.50;;;;;;5064493;28;20513;-70
2022/03/20 10:14:20;;;;;;;27.05;24.15;;;8.80;65.30;;;;;;5079113;28;20067;-69
2022/03/20 10:16:48;;;;;;;28.90;24.67;;;8.90;63.50;;;;;;5076580;28;20406;-72
2022/03/20 10:19:23;;;;;;;27.77;24.63;;;8.90;64.40;;;;;;5091201;28;20039;-71
2022/03/20 10:22:06;;;;;;;28.52;24.80;;;8.90;65.40;;;;;;5096855;28;20139;-71
2022/03/20 10:24:34;;;;;;;29.88;25.67;;;9.10;63.20;;;;;;5057759;28;20139;-67
2022/03/20 10:26:59;;;;;;;29.00;23.73;;;9.10;62.80;;;;;;5084846;28;20153;-69
2022/03/20 10:29:26;;;;;;;27.63;24.58;;;9.10;61.90;;;;;;5084765;28;20056;-69
2022/03/20 10:31:54;;;;;;;28.75;25.83;;;9.10;62.20;;;;;;5068057;28;20514;-70
2022/03/20 10:34:23;;;;;;;29.90;24.92;;;9.20;62.50;;;;;;5067861;28;20096;-68
2022/03/20 10:36:51;;;;;;;28.40;25.17;;;9.30;63.30;;;;;;5083549;28;20093;-68
2022/03/20 10:39:19;;;;;;;28.83;25.45;;;9.30;60.70;;;;;;5085349;28;20040;-67
2022/03/20 10:41:52;;;;;;;30.27;25.60;;;9.30;60.00;;;;;;5084040;28;20464;-68
2022/03/20 10:44:20;;;;;;;29.05;25.67;;;9.30;60.90;;;;;;5068451;28;20122;-68
2022/03/20 10:47:12;;;;;;;30.55;26.52;;;9.30;61.60;;;;;;5084035;28;20056;-68
2022/03/20 10:49:41;;;;;;;29.40;25.73;;;9.40;62.50;;;;;;5076599;28;20047;-68
2022/03/20 10:52:09;;;;;;;31.00;25.05;;;9.60;61.30;;;;;;5054704;28;20571;-70
2022/03/20 10:54:44;;;;;;;31.40;25.95;;;9.60;60.00;;;;;;5073656;28;20092;-68
2022/03/20 10:57:11;;;;;;;27.67;23.88;;;9.70;60.00;;;;;;5068025;28;20048;-69
2022/03/20 10:59:38;;;;;;;31.50;26.98;;;9.80;58.60;;;;;;5065720;28;20044;-69
2022/03/20 11:02:08;;;;;;;29.98;25.27;;;9.70;59.70;;;;;;5065293;28;20161;-68
2022/03/20 11:04:34;;;;;;;30.00;26.25;;;9.80;59.60;;;;;;5083527;28;20101;-68
2022/03/20 11:07:06;;;;;;;30.90;26.17;;;9.80;58.50;;;;;;5084257;28;20047;-68
2022/03/20 11:09:31;;;;;;;31.73;25.67;;;9.90;58.60;;;;;;5084085;28;20098;-69
2022/03/20 11:11:58;;;;;;;32.00;26.02;;;10.00;59.00;;;;;;5083609;28;20570;-69
2022/03/20 11:14:29;;;;;;;30.95;26.13;;;10.00;59.20;;;;;;5066954;28;20066;-70
2022/03/20 11:17:02;;;;;;;33.50;27.10;;;10.10;58.40;;;;;;5082846;28;20499;-70
2022/03/20 11:19:29;;;;;;;32.28;25.70;;;10.10;57.10;;;;;;5083839;28;20238;-70
2022/03/20 11:22:03;;;;;;;29.92;25.92;;;10.00;57.80;;;;;;5084131;28;20103;-70
2022/03/20 11:24:29;;;;;;;30.95;25.00;;;10.10;59.10;;;;;;5083844;28;20056;-69
2022/03/20 11:27:01;;;;;;;31.10;25.90;;;10.20;58.10;;;;;;5111338;27;20048;-70
2022/03/20 11:29:51;;;;;;;31.00;25.58;;;10.30;57.40;;;;;;5046865;28;20036;-70
2022/03/20 11:32:18;;;;;;;30.58;25.42;;;10.40;56.70;;;;;;5057280;28;20044;-69
2022/03/20 11:34:46;;;;;;;30.63;26.27;;;10.50;57.10;;;;;;5081006;28;20218;-69
2022/03/20 11:37:15;;;;;;;31.83;26.50;;;10.50;56.30;;;;;;5080754;28;20068;-71
2022/03/20 11:40:08;;;;;;;30.25;24.98;;;10.50;57.50;;;;;;5064099;28;20117;-70
2022/03/20 11:42:35;;;;;;;32.90;26.50;;;10.60;58.10;;;;;;5076527;28;20059;-69
2022/03/20 11:45:00;;;;;;;30.58;25.35;;;10.80;57.60;;;;;;5079892;28;20044;-69
2022/03/20 11:47:31;;;;;;;33.08;25.83;;;10.80;56.50;;;;;;5077971;28;20055;-71
2022/03/20 11:50:20;;;;;;;29.75;24.98;;;10.80;56.10;;;;;;5062338;28;20093;-71
2022/03/20 11:52:58;;;;;;;33.75;27.17;;;10.70;55.20;;;;;;5068527;28;20048;-71
2022/03/20 11:55:53;;;;;;;32.20;25.85;;;10.70;55.40;;;;;;5064382;28;20623;-72
2022/03/20 11:58:24;;;;;;;28.50;25.23;;;10.80;56.30;;;;;;5061468;28;20399;-71
2022/03/20 12:01:02;;;;;;;;;;;10.80;56.00;;;;;;5065025;28;20097;-71
2022/03/20 12:03:37;;;;;;;32.38;26.75;;;10.80;55.20;;;;;;5081105;28;19981;-70
2022/03/20 12:06:15;;;;;;;31.10;26.23;;;10.70;55.50;;;;;;5114924;27;20055;-70
2022/03/20 12:09:09;;;;;;;29.95;25.67;;;10.80;56.00;;;;;;5072894;28;20458;-71
2022/03/20 12:12:03;;;;;;;30.10;25.52;;;11.00;55.40;;;;;;5071753;28;20049;-71
2022/03/20 12:14:38;;;;;;;29.52;26.33;;;11.10;54.80;;;;;;5079802;28;20052;-73
2022/03/20 12:17:04;;;;;;;30.50;25.27;;;11.00;55.20;;;;;;5076835;28;20145;-73
2022/03/20 12:19:44;;;;;;;31.08;24.92;;;11.00;56.30;;;;;;5076824;28;20060;-72
2022/03/20 12:22:30;;;;;;;33.17;26.00;;;11.10;54.40;;;;;;5074421;28;20044;-72
2022/03/20 12:25:02;;;;;;;31.75;25.27;;;11.00;54.90;;;;;;5053863;28;20044;-68
2022/03/20 12:27:29;;;;;;;31.73;26.95;;;10.90;54.50;;;;;;5075145;28;20075;-72
2022/03/20 12:30:16;;;;;;;30.83;26.38;;;10.80;55.20;;;;;;5096265;28;20051;-72
2022/03/20 12:32:47;;;;;;;31.52;26.17;;;10.70;55.10;;;;;;5078395;28;20044;-72
2022/03/20 12:35:22;;;;;;;32.35;26.80;;;10.80;55.10;;;;;;5065849;28;20040;-70
2022/03/20 12:37:49;;;;;;;32.78;27.65;;;10.70;55.40;;;;;;5100550;28;20415;-71
2022/03/20 12:40:21;;;;;;;33.80;25.77;;;10.80;56.10;;;;;;5068101;28;20582;-73
2022/03/20 12:43:02;;;;;;;29.10;25.67;;;11.00;56.50;;;;;;5085467;28;20050;-73
2022/03/20 12:45:28;;;;;;;30.65;26.27;;;10.90;56.10;;;;;;5069173;28;20040;-73
2022/03/20 12:47:57;;;;;;;28.42;25.15;;;10.90;56.10;;;;;;5067793;28;20044;-73
2022/03/20 12:50:35;;;;;;;31.80;25.58;;;10.90;56.40;;;;;;5067829;28;20040;-73
2022/03/20 12:53:06;;;;;;;33.72;27.10;;;11.00;55.70;;;;;;5059211;28;20114;-72
2022/03/20 12:55:32;;;;;;;31.50;26.63;;;10.90;56.00;;;;;;5075894;28;20589;-70
2022/03/20 12:57:58;;;;;;;32.30;27.52;;;10.90;55.70;;;;;;5080384;28;20055;-70
2022/03/20 13:00:32;;;;;;;35.15;26.40;;;10.90;56.40;;;;;;5063205;28;20040;-73
2022/03/20 13:03:06;;;;;;;33.55;26.67;;;11.00;55.30;;;;;;5100517;28;20032;-69
2022/03/20 13:05:33;;;;;;;31.10;25.40;;;11.10;55.40;;;;;;5067265;28;20521;-70
2022/03/20 13:07:59;;;;;;;30.08;24.67;;;11.00;55.70;;;;;;5082207;28;20291;-68
2022/03/20 13:10:31;;;;;;;32.55;27.50;;;10.90;55.90;;;;;;5086824;28;20097;-69
2022/03/20 13:13:01;;;;;;;32.70;27.15;;;11.00;56.10;;;;;;5079304;28;21018;-69
2022/03/20 13:15:36;;;;;;;31.45;26.83;;;10.90;56.20;;;;;;5097953;28;20043;-69
2022/03/20 13:18:05;;;;;;;37.13;28.30;;;10.90;55.90;;;;;;5081839;28;20102;-68